sensor_id;sensor_type;location;lat;lon;timestamp;pressure;altitude;pressure_sealevel;temperature;humidity
79586;BME280;69054;50.866;4.636;2023-05-29T00:00:12;101766.06;;;11.97;80.21
79586;BME280;69054;50.866;4.636;2023-05-29T00:02:38;101775.13;;;11.98;80.04
79586;BME280;69054;50.866;4.636;2023-05-29T00:05:05;101765.09;;;11.82;80.82
79586;BME280;69054;50.866;4.636;2023-05-29T00:07:31;101772.13;;;11.76;81.12
79586;BME280;69054;50.866;4.636;2023-05-29T00:09:58;101773.53;;;11.72;81.36
79586;BME280;69054;50.866;4.636;2023-05-29T00:12:23;101776.22;;;11.80;80.85
79586;BME280;69054;50.866;4.636;2023-05-29T00:14:49;101778.66;;;11.75;80.86
79586;BME280;69054;50.866;4.636;2023-05-29T00:17:15;101777.56;;;11.84;80.40
79586;BME280;69054;50.866;4.636;2023-05-29T00:19:42;101791.66;;;11.73;80.63
79586;BME280;69054;50.866;4.636;2023-05-29T00:22:07;101781.69;;;11.80;80.41
79586;BME280;69054;50.866;4.636;2023-05-29T00:24:33;101777.59;;;11.76;80.62
79586;BME280;69054;50.866;4.636;2023-05-29T00:26:58;101778.16;;;11.71;80.57
79586;BME280;69054;50.866;4.636;2023-05-29T00:29:23;101780.69;;;11.81;80.38
79586;BME280;69054;50.866;4.636;2023-05-29T00:31:49;101787.53;;;11.77;80.18
79586;BME280;69054;50.866;4.636;2023-05-29T00:34:14;101791.88;;;11.63;80.85
79586;BME280;69054;50.866;4.636;2023-05-29T00:36:40;101788.31;;;11.63;80.97
79586;BME280;69054;50.866;4.636;2023-05-29T00:39:05;101795.34;;;11.57;81.22
79586;BME280;69054;50.866;4.636;2023-05-29T00:41:31;101790.88;;;11.56;81.46
79586;BME280;69054;50.866;4.636;2023-05-29T00:43:56;101800.69;;;11.42;82.00
79586;BME280;69054;50.866;4.636;2023-05-29T00:46:21;101796.38;;;11.56;81.48
79586;BME280;69054;50.866;4.636;2023-05-29T00:48:47;101794.66;;;11.55;81.49
79586;BME280;69054;50.866;4.636;2023-05-29T00:51:14;101799.28;;;11.54;81.61
79586;BME280;69054;50.866;4.636;2023-05-29T00:53:42;101793.84;;;11.46;81.57
79586;BME280;69054;50.866;4.636;2023-05-29T00:56:09;101793.16;;;11.44;81.97
79586;BME280;69054;50.866;4.636;2023-05-29T00:58:35;101799.38;;;11.22;82.48
79586;BME280;69054;50.866;4.636;2023-05-29T01:01:02;101799.28;;;11.07;83.66
79586;BME280;69054;50.866;4.636;2023-05-29T01:03:28;101795.53;;;10.91;84.76
79586;BME280;69054;50.866;4.636;2023-05-29T01:05:54;101802.72;;;10.84;85.12
79586;BME280;69054;50.866;4.636;2023-05-29T01:08:19;101804.78;;;10.90;85.33
79586;BME280;69054;50.866;4.636;2023-05-29T01:10:45;101802.38;;;10.87;85.23
79586;BME280;69054;50.866;4.636;2023-05-29T01:13:18;101798.78;;;10.95;85.21
79586;BME280;69054;50.866;4.636;2023-05-29T01:15:52;101815.34;;;10.85;85.63
79586;BME280;69054;50.866;4.636;2023-05-29T01:21:23;101815.03;;;10.80;86.13
79586;BME280;69054;50.866;4.636;2023-05-29T01:29:07;101810.78;;;10.69;86.84
79586;BME280;69054;50.866;4.636;2023-05-29T01:31:36;101808.72;;;10.71;86.78
79586;BME280;69054;50.866;4.636;2023-05-29T01:34:02;101819.16;;;10.68;86.91
79586;BME280;69054;50.866;4.636;2023-05-29T01:36:28;101813.00;;;10.57;87.34
79586;BME280;69054;50.866;4.636;2023-05-29T01:38:55;101814.69;;;10.67;87.12
79586;BME280;69054;50.866;4.636;2023-05-29T01:41:21;101825.81;;;10.65;87.30
79586;BME280;69054;50.866;4.636;2023-05-29T01:43:49;101823.25;;;10.63;87.31
79586;BME280;69054;50.866;4.636;2023-05-29T01:46:15;101822.91;;;10.67;87.28
79586;BME280;69054;50.866;4.636;2023-05-29T01:48:41;101822.75;;;10.60;87.79
79586;BME280;69054;50.866;4.636;2023-05-29T01:51:08;101832.09;;;10.65;87.64
79586;BME280;69054;50.866;4.636;2023-05-29T01:53:33;101828.88;;;10.70;87.29
79586;BME280;69054;50.866;4.636;2023-05-29T01:55:59;101835.34;;;10.77;86.83
79586;BME280;69054;50.866;4.636;2023-05-29T01:58:25;101833.16;;;10.81;86.35
79586;BME280;69054;50.866;4.636;2023-05-29T02:00:51;101831.94;;;10.83;86.34
79586;BME280;69054;50.866;4.636;2023-05-29T02:03:17;101826.31;;;10.69;87.02
79586;BME280;69054;50.866;4.636;2023-05-29T02:05:42;101836.38;;;10.68;86.86
79586;BME280;69054;50.866;4.636;2023-05-29T02:08:08;101837.94;;;10.71;86.55
79586;BME280;69054;50.866;4.636;2023-05-29T02:10:33;101835.22;;;10.71;86.15
79586;BME280;69054;50.866;4.636;2023-05-29T02:12:58;101830.94;;;10.68;86.13
79586;BME280;69054;50.866;4.636;2023-05-29T02:15:24;101836.72;;;10.65;86.28
79586;BME280;69054;50.866;4.636;2023-05-29T02:17:50;101836.72;;;10.65;86.44
79586;BME280;69054;50.866;4.636;2023-05-29T02:20:15;101840.13;;;10.67;86.03
79586;BME280;69054;50.866;4.636;2023-05-29T02:22:41;101835.00;;;10.64;86.31
79586;BME280;69054;50.866;4.636;2023-05-29T02:25:06;101843.38;;;10.62;86.14
79586;BME280;69054;50.866;4.636;2023-05-29T02:27:32;101842.03;;;10.58;86.27
79586;BME280;69054;50.866;4.636;2023-05-29T02:29:57;101830.22;;;10.58;86.39
79586;BME280;69054;50.866;4.636;2023-05-29T02:32:24;101824.59;;;10.51;86.55
79586;BME280;69054;50.866;4.636;2023-05-29T02:34:53;101827.47;;;10.41;86.68
79586;BME280;69054;50.866;4.636;2023-05-29T02:37:18;101842.88;;;10.34;87.18
79586;BME280;69054;50.866;4.636;2023-05-29T02:39:44;101842.69;;;10.36;86.41
79586;BME280;69054;50.866;4.636;2023-05-29T02:42:09;101834.66;;;10.34;86.31
79586;BME280;69054;50.866;4.636;2023-05-29T02:44:34;101839.41;;;10.32;86.47
79586;BME280;69054;50.866;4.636;2023-05-29T02:47:00;101833.22;;;10.22;86.80
79586;BME280;69054;50.866;4.636;2023-05-29T02:49:25;101831.72;;;10.19;86.18
79586;BME280;69054;50.866;4.636;2023-05-29T02:51:51;101837.84;;;10.13;86.26
79586;BME280;69054;50.866;4.636;2023-05-29T02:54:21;101835.41;;;9.93;87.04
79586;BME280;69054;50.866;4.636;2023-05-29T02:56:46;101836.91;;;9.80;87.39
79586;BME280;69054;50.866;4.636;2023-05-29T02:59:12;101825.59;;;9.74;87.80
79586;BME280;69054;50.866;4.636;2023-05-29T03:01:37;101820.44;;;9.63;88.02
79586;BME280;69054;50.866;4.636;2023-05-29T03:04:02;101830.25;;;9.48;88.33
79586;BME280;69054;50.866;4.636;2023-05-29T03:06:28;101832.28;;;9.37;88.73
79586;BME280;69054;50.866;4.636;2023-05-29T03:08:53;101829.13;;;9.24;89.37
79586;BME280;69054;50.866;4.636;2023-05-29T03:11:19;101831.84;;;9.24;89.18
79586;BME280;69054;50.866;4.636;2023-05-29T03:13:46;101826.66;;;9.13;89.68
79586;BME280;69054;50.866;4.636;2023-05-29T03:16:12;101835.75;;;9.21;89.14
79586;BME280;69054;50.866;4.636;2023-05-29T03:18:38;101838.28;;;9.15;89.38
79586;BME280;69054;50.866;4.636;2023-05-29T03:21:04;101844.84;;;9.04;89.17
79586;BME280;69054;50.866;4.636;2023-05-29T03:23:29;101840.19;;;8.96;89.69
79586;BME280;69054;50.866;4.636;2023-05-29T03:25:55;101848.50;;;8.95;88.87
79586;BME280;69054;50.866;4.636;2023-05-29T03:28:20;101847.13;;;8.91;89.34
79586;BME280;69054;50.866;4.636;2023-05-29T03:30:46;101853.69;;;8.98;88.39
79586;BME280;69054;50.866;4.636;2023-05-29T03:33:11;101852.50;;;8.82;88.94
79586;BME280;69054;50.866;4.636;2023-05-29T03:35:36;101845.25;;;8.91;88.34
79586;BME280;69054;50.866;4.636;2023-05-29T03:38:02;101845.22;;;8.83;88.62
79586;BME280;69054;50.866;4.636;2023-05-29T03:40:27;101846.22;;;8.82;88.12
79586;BME280;69054;50.866;4.636;2023-05-29T03:42:52;101845.44;;;8.72;88.43
79586;BME280;69054;50.866;4.636;2023-05-29T03:45:18;101846.47;;;8.70;87.97
79586;BME280;69054;50.866;4.636;2023-05-29T03:47:43;101852.22;;;8.67;87.99
79586;BME280;69054;50.866;4.636;2023-05-29T03:50:09;101858.91;;;8.55;88.13
79586;BME280;69054;50.866;4.636;2023-05-29T03:52:34;101847.16;;;8.73;86.98
79586;BME280;69054;50.866;4.636;2023-05-29T03:55:02;101863.13;;;8.67;87.04
79586;BME280;69054;50.866;4.636;2023-05-29T03:57:27;101859.16;;;8.62;87.37
79586;BME280;69054;50.866;4.636;2023-05-29T03:59:52;101865.41;;;8.54;87.44
79586;BME280;69054;50.866;4.636;2023-05-29T04:02:18;101863.69;;;8.53;87.30
79586;BME280;69054;50.866;4.636;2023-05-29T04:04:43;101877.53;;;8.60;86.07
79586;BME280;69054;50.866;4.636;2023-05-29T04:07:09;101876.91;;;8.66;86.14
79586;BME280;69054;50.866;4.636;2023-05-29T04:09:34;101884.63;;;8.70;85.39
79586;BME280;69054;50.866;4.636;2023-05-29T04:12:00;101879.75;;;8.82;84.72
79586;BME280;69054;50.866;4.636;2023-05-29T04:14:27;101890.13;;;8.79;84.79
79586;BME280;69054;50.866;4.636;2023-05-29T04:16:53;101887.25;;;8.80;84.06
79586;BME280;69054;50.866;4.636;2023-05-29T04:19:18;101897.78;;;8.75;84.71
79586;BME280;69054;50.866;4.636;2023-05-29T04:21:44;101889.13;;;8.80;84.31
79586;BME280;69054;50.866;4.636;2023-05-29T04:24:09;101896.09;;;9.00;81.88
79586;BME280;69054;50.866;4.636;2023-05-29T04:26:36;101906.69;;;9.03;82.68
79586;BME280;69054;50.866;4.636;2023-05-29T04:29:06;101910.66;;;9.09;81.79
79586;BME280;69054;50.866;4.636;2023-05-29T04:31:31;101911.91;;;9.15;80.82
79586;BME280;69054;50.866;4.636;2023-05-29T04:33:56;101914.00;;;9.21;80.31
79586;BME280;69054;50.866;4.636;2023-05-29T04:36:25;101912.50;;;9.27;80.12
79586;BME280;69054;50.866;4.636;2023-05-29T04:38:54;101925.09;;;9.28;79.90
79586;BME280;69054;50.866;4.636;2023-05-29T04:41:20;101926.34;;;9.33;80.50
79586;BME280;69054;50.866;4.636;2023-05-29T04:43:49;101918.91;;;9.44;78.69
79586;BME280;69054;50.866;4.636;2023-05-29T04:46:16;101916.06;;;9.53;78.84
79586;BME280;69054;50.866;4.636;2023-05-29T04:48:41;101923.59;;;9.59;78.13
79586;BME280;69054;50.866;4.636;2023-05-29T04:51:07;101925.31;;;9.61;79.02
79586;BME280;69054;50.866;4.636;2023-05-29T04:53:37;101915.66;;;9.66;77.09
79586;BME280;69054;50.866;4.636;2023-05-29T04:56:02;101927.75;;;9.72;77.19
79586;BME280;69054;50.866;4.636;2023-05-29T04:58:27;101925.75;;;9.74;77.06
79586;BME280;69054;50.866;4.636;2023-05-29T05:00:53;101930.72;;;9.79;77.45
79586;BME280;69054;50.866;4.636;2023-05-29T05:03:18;101933.63;;;9.85;77.53
79586;BME280;69054;50.866;4.636;2023-05-29T05:05:43;101939.31;;;9.92;76.66
79586;BME280;69054;50.866;4.636;2023-05-29T05:08:09;101934.88;;;9.99;76.46
79586;BME280;69054;50.866;4.636;2023-05-29T05:10:37;101938.16;;;10.03;74.85
79586;BME280;69054;50.866;4.636;2023-05-29T05:13:02;101939.41;;;10.08;75.53
79586;BME280;69054;50.866;4.636;2023-05-29T05:15:28;101944.03;;;10.16;75.73
79586;BME280;69054;50.866;4.636;2023-05-29T05:17:53;101937.75;;;10.24;74.71
79586;BME280;69054;50.866;4.636;2023-05-29T05:20:19;101949.25;;;10.36;74.98
79586;BME280;69054;50.866;4.636;2023-05-29T05:22:44;101944.31;;;10.47;73.30
79586;BME280;69054;50.866;4.636;2023-05-29T05:25:10;101951.69;;;10.55;73.50
79586;BME280;69054;50.866;4.636;2023-05-29T05:27:36;101958.72;;;10.66;73.07
79586;BME280;69054;50.866;4.636;2023-05-29T05:30:05;101956.34;;;10.71;72.21
79586;BME280;69054;50.866;4.636;2023-05-29T05:32:30;101963.69;;;10.79;72.62
79586;BME280;69054;50.866;4.636;2023-05-29T05:34:56;101967.81;;;10.99;72.19
79586;BME280;69054;50.866;4.636;2023-05-29T05:37:21;101957.03;;;11.31;71.26
79586;BME280;69054;50.866;4.636;2023-05-29T05:39:49;101962.16;;;11.50;69.38
79586;BME280;69054;50.866;4.636;2023-05-29T05:42:14;101956.66;;;11.50;69.04
79586;BME280;69054;50.866;4.636;2023-05-29T05:44:40;101965.91;;;11.66;69.79
79586;BME280;69054;50.866;4.636;2023-05-29T05:47:05;101962.09;;;11.83;68.86
79586;BME280;69054;50.866;4.636;2023-05-29T05:49:31;101967.06;;;11.96;68.27
79586;BME280;69054;50.866;4.636;2023-05-29T05:51:56;101970.75;;;12.12;68.02
79586;BME280;69054;50.866;4.636;2023-05-29T05:54:21;101976.84;;;12.30;66.99
79586;BME280;69054;50.866;4.636;2023-05-29T05:56:47;101977.50;;;12.32;65.92
79586;BME280;69054;50.866;4.636;2023-05-29T05:59:12;101973.53;;;12.43;65.35
79586;BME280;69054;50.866;4.636;2023-05-29T06:01:37;101976.13;;;12.68;65.56
79586;BME280;69054;50.866;4.636;2023-05-29T06:04:04;101981.63;;;12.91;64.08
79586;BME280;69054;50.866;4.636;2023-05-29T06:06:29;101986.13;;;13.30;63.33
79586;BME280;69054;50.866;4.636;2023-05-29T06:08:57;101982.00;;;13.72;61.86
79586;BME280;69054;50.866;4.636;2023-05-29T06:11:23;101986.19;;;13.83;59.79
79586;BME280;69054;50.866;4.636;2023-05-29T06:13:48;101985.69;;;13.94;60.21
79586;BME280;69054;50.866;4.636;2023-05-29T06:16:14;101986.47;;;13.73;60.67
79586;BME280;69054;50.866;4.636;2023-05-29T06:18:39;101982.19;;;14.15;60.46
79586;BME280;69054;50.866;4.636;2023-05-29T06:21:05;101989.06;;;14.41;59.56
79586;BME280;69054;50.866;4.636;2023-05-29T06:23:32;101991.81;;;14.71;58.43
79586;BME280;69054;50.866;4.636;2023-05-29T06:25:58;101996.03;;;15.10;57.75
79586;BME280;69054;50.866;4.636;2023-05-29T06:28:24;101986.53;;;15.34;56.92
79586;BME280;69054;50.866;4.636;2023-05-29T06:30:50;101983.22;;;15.74;54.32
79586;BME280;69054;50.866;4.636;2023-05-29T06:33:16;101981.63;;;15.86;54.16
79586;BME280;69054;50.866;4.636;2023-05-29T06:35:41;101979.53;;;16.23;52.99
79586;BME280;69054;50.866;4.636;2023-05-29T06:38:06;101986.28;;;16.62;52.24
79586;BME280;69054;50.866;4.636;2023-05-29T06:40:32;101983.88;;;16.53;52.55
79586;BME280;69054;50.866;4.636;2023-05-29T06:42:57;101986.25;;;16.56;52.99
79586;BME280;69054;50.866;4.636;2023-05-29T06:45:22;101998.25;;;15.93;53.52
79586;BME280;69054;50.866;4.636;2023-05-29T06:47:48;101998.28;;;16.06;53.43
79586;BME280;69054;50.866;4.636;2023-05-29T06:50:13;101996.53;;;15.92;53.81
79586;BME280;69054;50.866;4.636;2023-05-29T06:52:39;102006.19;;;16.58;53.42
79586;BME280;69054;50.866;4.636;2023-05-29T06:55:05;102002.56;;;16.50;51.66
79586;BME280;69054;50.866;4.636;2023-05-29T06:57:31;102004.56;;;16.70;50.80
79586;BME280;69054;50.866;4.636;2023-05-29T06:59:56;102008.84;;;16.86;51.51
79586;BME280;69054;50.866;4.636;2023-05-29T07:02:21;102013.19;;;17.15;50.32
79586;BME280;69054;50.866;4.636;2023-05-29T07:04:47;102010.66;;;17.14;49.71
79586;BME280;69054;50.866;4.636;2023-05-29T07:07:12;102012.50;;;17.00;50.38
79586;BME280;69054;50.866;4.636;2023-05-29T07:09:37;102012.50;;;16.93;51.39
79586;BME280;69054;50.866;4.636;2023-05-29T07:12:05;102009.78;;;17.07;51.19
79586;BME280;69054;50.866;4.636;2023-05-29T07:14:30;102009.78;;;17.13;49.73
79586;BME280;69054;50.866;4.636;2023-05-29T07:16:56;102003.84;;;17.36;50.06
79586;BME280;69054;50.866;4.636;2023-05-29T07:19:21;101999.16;;;17.64;49.29
79586;BME280;69054;50.866;4.636;2023-05-29T07:21:46;102001.28;;;17.95;49.43
79586;BME280;69054;50.866;4.636;2023-05-29T07:24:12;101997.00;;;18.06;47.03
79586;BME280;69054;50.866;4.636;2023-05-29T07:26:37;101999.50;;;18.34;47.84
79586;BME280;69054;50.866;4.636;2023-05-29T07:29:02;102013.00;;;19.08;46.58
79586;BME280;69054;50.866;4.636;2023-05-29T07:31:28;102002.47;;;19.23;45.35
79586;BME280;69054;50.866;4.636;2023-05-29T07:33:53;101999.69;;;18.91;45.23
79586;BME280;69054;50.866;4.636;2023-05-29T07:36:19;102013.31;;;18.86;45.49
79586;BME280;69054;50.866;4.636;2023-05-29T07:38:44;102010.63;;;18.73;45.88
79586;BME280;69054;50.866;4.636;2023-05-29T07:41:10;102004.44;;;18.71;45.96
79586;BME280;69054;50.866;4.636;2023-05-29T07:43:36;102008.59;;;19.00;44.86
79586;BME280;69054;50.866;4.636;2023-05-29T07:46:03;102009.25;;;19.27;44.94
79586;BME280;69054;50.866;4.636;2023-05-29T07:48:28;102005.06;;;19.68;44.69
79586;BME280;69054;50.866;4.636;2023-05-29T07:50:54;102022.50;;;19.76;43.41
79586;BME280;69054;50.866;4.636;2023-05-29T07:53:19;102014.94;;;20.45;41.93
79586;BME280;69054;50.866;4.636;2023-05-29T07:55:45;102015.25;;;20.55;41.18
79586;BME280;69054;50.866;4.636;2023-05-29T07:58:10;102014.53;;;19.61;43.16
79586;BME280;69054;50.866;4.636;2023-05-29T08:00:36;102012.56;;;19.36;43.64
79586;BME280;69054;50.866;4.636;2023-05-29T08:03:03;102012.44;;;19.81;42.93
79586;BME280;69054;50.866;4.636;2023-05-29T08:05:29;102009.03;;;20.05;43.23
79586;BME280;69054;50.866;4.636;2023-05-29T08:07:56;102004.00;;;20.99;40.85
79586;BME280;69054;50.866;4.636;2023-05-29T08:10:23;102017.69;;;21.13;41.79
79586;BME280;69054;50.866;4.636;2023-05-29T08:12:49;102021.97;;;21.27;40.27
79586;BME280;69054;50.866;4.636;2023-05-29T08:15:15;102024.53;;;20.31;41.27
79586;BME280;69054;50.866;4.636;2023-05-29T08:17:41;102024.22;;;21.06;40.26
79586;BME280;69054;50.866;4.636;2023-05-29T08:20:07;102018.31;;;22.16;39.07
79586;BME280;69054;50.866;4.636;2023-05-29T08:22:35;102026.16;;;22.83;38.26
79586;BME280;69054;50.866;4.636;2023-05-29T08:25:00;102027.88;;;22.32;37.79
79586;BME280;69054;50.866;4.636;2023-05-29T08:27:26;102027.78;;;21.37;38.77
79586;BME280;69054;50.866;4.636;2023-05-29T08:29:51;102033.56;;;22.02;37.74
79586;BME280;69054;50.866;4.636;2023-05-29T08:32:17;102022.19;;;21.68;39.01
79586;BME280;69054;50.866;4.636;2023-05-29T08:34:42;102021.66;;;22.30;37.96
79586;BME280;69054;50.866;4.636;2023-05-29T08:37:10;102026.75;;;22.45;37.86
79586;BME280;69054;50.866;4.636;2023-05-29T08:39:36;102027.75;;;22.39;38.72
79586;BME280;69054;50.866;4.636;2023-05-29T08:42:05;102023.63;;;22.41;38.83
79586;BME280;69054;50.866;4.636;2023-05-29T08:44:33;102025.91;;;22.21;37.54
79586;BME280;69054;50.866;4.636;2023-05-29T08:47:02;102020.50;;;22.14;37.03
79586;BME280;69054;50.866;4.636;2023-05-29T08:49:41;102026.25;;;22.48;37.82
79586;BME280;69054;50.866;4.636;2023-05-29T08:52:19;102025.00;;;21.91;39.69
79586;BME280;69054;50.866;4.636;2023-05-29T08:54:45;102030.19;;;21.88;37.41
79586;BME280;69054;50.866;4.636;2023-05-29T08:57:11;102046.50;;;22.20;38.11
79586;BME280;69054;50.866;4.636;2023-05-29T08:59:40;102036.78;;;22.98;37.33
79586;BME280;69054;50.866;4.636;2023-05-29T09:02:06;102047.00;;;21.93;38.19
79586;BME280;69054;50.866;4.636;2023-05-29T09:04:32;102042.53;;;21.26;38.80
79586;BME280;69054;50.866;4.636;2023-05-29T09:06:58;102039.69;;;21.14;39.70
79586;BME280;69054;50.866;4.636;2023-05-29T09:09:24;102041.28;;;21.22;40.72
79586;BME280;69054;50.866;4.636;2023-05-29T09:11:52;102046.00;;;21.75;40.02
79586;BME280;69054;50.866;4.636;2023-05-29T09:14:39;102044.66;;;22.61;38.16
79586;BME280;69054;50.866;4.636;2023-05-29T09:17:06;102054.91;;;23.01;36.02
79586;BME280;69054;50.866;4.636;2023-05-29T09:19:34;102047.50;;;22.78;36.61
79586;BME280;69054;50.866;4.636;2023-05-29T09:22:04;102052.28;;;22.30;37.49
79586;BME280;69054;50.866;4.636;2023-05-29T09:24:34;102051.44;;;21.58;37.87
79586;BME280;69054;50.866;4.636;2023-05-29T09:27:02;102050.59;;;21.82;37.54
79586;BME280;69054;50.866;4.636;2023-05-29T09:29:31;102055.97;;;22.42;36.61
79586;BME280;69054;50.866;4.636;2023-05-29T09:31:58;102056.22;;;23.10;36.16
79586;BME280;69054;50.866;4.636;2023-05-29T09:34:24;102062.34;;;22.55;36.06
79586;BME280;69054;50.866;4.636;2023-05-29T09:36:52;102058.13;;;21.93;36.68
79586;BME280;69054;50.866;4.636;2023-05-29T09:39:18;102065.41;;;22.41;37.88
79586;BME280;69054;50.866;4.636;2023-05-29T09:41:44;102067.06;;;22.95;36.40
79586;BME280;69054;50.866;4.636;2023-05-29T09:44:12;102061.41;;;22.90;36.64
79586;BME280;69054;50.866;4.636;2023-05-29T09:46:42;102059.44;;;23.48;35.08
79586;BME280;69054;50.866;4.636;2023-05-29T09:49:14;102067.38;;;23.10;35.96
79586;BME280;69054;50.866;4.636;2023-05-29T09:51:41;102063.03;;;23.94;33.04
79586;BME280;69054;50.866;4.636;2023-05-29T09:54:15;102060.00;;;23.33;34.33
79586;BME280;69054;50.866;4.636;2023-05-29T09:56:42;102068.34;;;22.75;35.99
79586;BME280;69054;50.866;4.636;2023-05-29T09:59:12;102057.22;;;22.63;36.03
79586;BME280;69054;50.866;4.636;2023-05-29T10:01:39;102060.31;;;21.79;37.76
79586;BME280;69054;50.866;4.636;2023-05-29T10:04:05;102055.47;;;22.10;36.55
79586;BME280;69054;50.866;4.636;2023-05-29T10:06:32;102051.28;;;23.00;35.03
79586;BME280;69054;50.866;4.636;2023-05-29T10:08:58;102057.91;;;22.82;35.94
79586;BME280;69054;50.866;4.636;2023-05-29T10:11:25;102057.84;;;23.69;35.80
79586;BME280;69054;50.866;4.636;2023-05-29T10:13:53;102046.53;;;23.92;35.21
79586;BME280;69054;50.866;4.636;2023-05-29T10:16:21;102051.44;;;22.94;35.20
79586;BME280;69054;50.866;4.636;2023-05-29T10:18:53;102038.56;;;23.50;35.11
79586;BME280;69054;50.866;4.636;2023-05-29T10:21:20;102057.63;;;24.26;34.23
79586;BME280;69054;50.866;4.636;2023-05-29T10:23:49;102050.31;;;23.52;34.02
79586;BME280;69054;50.866;4.636;2023-05-29T10:26:21;102058.50;;;24.27;33.73
79586;BME280;69054;50.866;4.636;2023-05-29T10:34:50;102057.16;;;24.74;31.50
79586;BME280;69054;50.866;4.636;2023-05-29T10:37:44;102054.00;;;24.26;33.88
79586;BME280;69054;50.866;4.636;2023-05-29T10:40:11;102038.81;;;25.32;31.92
79586;BME280;69054;50.866;4.636;2023-05-29T10:45:08;102052.25;;;25.08;32.46
79586;BME280;69054;50.866;4.636;2023-05-29T10:47:34;102053.19;;;25.19;32.06
79586;BME280;69054;50.866;4.636;2023-05-29T10:50:01;102047.31;;;24.93;32.23
79586;BME280;69054;50.866;4.636;2023-05-29T10:52:33;102047.88;;;25.18;31.28
79586;BME280;69054;50.866;4.636;2023-05-29T10:54:59;102043.72;;;25.20;31.55
79586;BME280;69054;50.866;4.636;2023-05-29T10:57:28;102044.66;;;25.04;31.04
79586;BME280;69054;50.866;4.636;2023-05-29T11:00:06;102047.00;;;25.39;32.09
79586;BME280;69054;50.866;4.636;2023-05-29T11:02:37;102047.28;;;24.66;31.94
79586;BME280;69054;50.866;4.636;2023-05-29T11:05:21;102038.16;;;25.25;32.17
79586;BME280;69054;50.866;4.636;2023-05-29T11:07:58;102037.03;;;25.86;30.17
79586;BME280;69054;50.866;4.636;2023-05-29T11:10:56;102038.50;;;25.61;30.77
79586;BME280;69054;50.866;4.636;2023-05-29T11:13:33;102040.00;;;26.07;29.79
79586;BME280;69054;50.866;4.636;2023-05-29T11:18:51;102036.00;;;25.05;30.69
79586;BME280;69054;50.866;4.636;2023-05-29T11:24:07;102024.38;;;25.41;31.39
79586;BME280;69054;50.866;4.636;2023-05-29T11:26:33;102024.69;;;26.93;29.71
79586;BME280;69054;50.866;4.636;2023-05-29T11:29:00;102030.94;;;27.26;28.33
79586;BME280;69054;50.866;4.636;2023-05-29T11:31:27;102035.47;;;27.48;27.33
79586;BME280;69054;50.866;4.636;2023-05-29T11:33:54;102029.09;;;26.63;27.52
79586;BME280;69054;50.866;4.636;2023-05-29T11:36:25;102023.81;;;26.19;28.92
79586;BME280;69054;50.866;4.636;2023-05-29T11:38:51;102034.19;;;26.77;28.57
79586;BME280;69054;50.866;4.636;2023-05-29T11:41:17;102030.63;;;27.07;29.92
79586;BME280;69054;50.866;4.636;2023-05-29T11:43:43;102026.47;;;26.46;29.16
79586;BME280;69054;50.866;4.636;2023-05-29T11:46:19;102016.84;;;26.85;28.30
79586;BME280;69054;50.866;4.636;2023-05-29T11:48:47;102013.00;;;27.27;28.16
79586;BME280;69054;50.866;4.636;2023-05-29T11:51:13;102024.94;;;26.71;28.86
79586;BME280;69054;50.866;4.636;2023-05-29T11:53:42;102013.16;;;25.78;30.25
79586;BME280;69054;50.866;4.636;2023-05-29T11:56:09;102009.34;;;25.52;30.20
79586;BME280;69054;50.866;4.636;2023-05-29T11:58:36;102014.84;;;25.79;30.10
79586;BME280;69054;50.866;4.636;2023-05-29T12:01:02;102016.25;;;25.39;30.02
79586;BME280;69054;50.866;4.636;2023-05-29T12:03:28;102015.94;;;25.73;30.42
79586;BME280;69054;50.866;4.636;2023-05-29T12:05:54;102017.44;;;26.97;28.91
79586;BME280;69054;50.866;4.636;2023-05-29T12:08:24;102017.44;;;27.02;28.04
79586;BME280;69054;50.866;4.636;2023-05-29T12:10:51;102010.47;;;27.46;28.04
79586;BME280;69054;50.866;4.636;2023-05-29T12:13:21;102010.16;;;27.94;28.27
79586;BME280;69054;50.866;4.636;2023-05-29T12:15:47;102008.44;;;28.24;28.48
79586;BME280;69054;50.866;4.636;2023-05-29T12:18:14;102013.81;;;26.38;30.63
79586;BME280;69054;50.866;4.636;2023-05-29T12:20:40;102008.25;;;25.53;30.06
79586;BME280;69054;50.866;4.636;2023-05-29T12:23:06;102008.09;;;24.83;31.61
79586;BME280;69054;50.866;4.636;2023-05-29T12:25:34;102014.00;;;24.20;32.59
79586;BME280;69054;50.866;4.636;2023-05-29T12:28:02;102007.38;;;24.26;31.23
79586;BME280;69054;50.866;4.636;2023-05-29T12:30:27;102005.84;;;25.72;31.45
79586;BME280;69054;50.866;4.636;2023-05-29T12:32:53;102004.75;;;26.11;29.94
79586;BME280;69054;50.866;4.636;2023-05-29T12:35:23;102004.66;;;26.53;30.20
79586;BME280;69054;50.866;4.636;2023-05-29T12:37:52;102012.22;;;25.62;30.12
79586;BME280;69054;50.866;4.636;2023-05-29T12:40:20;102010.91;;;25.75;30.02
79586;BME280;69054;50.866;4.636;2023-05-29T12:42:47;102003.09;;;25.77;28.86
79586;BME280;69054;50.866;4.636;2023-05-29T12:45:13;101997.44;;;25.72;28.57
79586;BME280;69054;50.866;4.636;2023-05-29T12:47:52;101996.66;;;25.39;29.88
79586;BME280;69054;50.866;4.636;2023-05-29T12:50:29;102003.81;;;24.75;31.08
79586;BME280;69054;50.866;4.636;2023-05-29T12:53:06;102008.78;;;25.23;32.82
79586;BME280;69054;50.866;4.636;2023-05-29T12:55:34;102010.16;;;25.20;30.79
79586;BME280;69054;50.866;4.636;2023-05-29T12:58:03;102002.94;;;24.97;30.90
79586;BME280;69054;50.866;4.636;2023-05-29T13:00:28;101999.19;;;24.86;30.42
79586;BME280;69054;50.866;4.636;2023-05-29T13:02:54;102006.69;;;24.58;31.86
79586;BME280;69054;50.866;4.636;2023-05-29T13:05:20;102015.97;;;24.86;31.98
79586;BME280;69054;50.866;4.636;2023-05-29T13:07:48;102024.44;;;24.96;31.01
79586;BME280;69054;50.866;4.636;2023-05-29T13:10:14;102009.88;;;25.86;30.51
79586;BME280;69054;50.866;4.636;2023-05-29T13:12:41;102013.66;;;26.66;28.46